sensor_id;sensor_type;location;lat;lon;timestamp;pressure;altitude;pressure_sealevel;temperature;humidity
7333;BME280;3707;43.618;25.342;2022-10-16T00:00:21;100969.19;;;12.53;100.00
7333;BME280;3707;43.618;25.342;2022-10-16T00:02:48;100960.38;;;12.45;100.00
7333;BME280;3707;43.618;25.342;2022-10-16T00:05:14;100964.66;;;12.42;100.00
7333;BME280;3707;43.618;25.342;2022-10-16T00:07:41;100969.78;;;12.39;100.00
7333;BME280;3707;43.618;25.342;2022-10-16T00:10:08;100972.44;;;12.42;100.00
7333;BME280;3707;43.618;25.342;2022-10-16T00:12:36;100942.88;;;12.39;100.00
7333;BME280;3707;43.618;25.342;2022-10-16T00:15:04;100983.03;;;12.50;100.00
7333;BME280;3707;43.618;25.342;2022-10-16T00:17:31;100978.59;;;12.46;100.00
7333;BME280;3707;43.618;25.342;2022-10-16T00:19:58;100979.34;;;12.40;100.00
7333;BME280;3707;43.618;25.342;2022-10-16T00:22:25;100981.78;;;12.34;100.00
7333;BME280;3707;43.618;25.342;2022-10-16T00:24:52;100974.84;;;12.33;100.00
7333;BME280;3707;43.618;25.342;2022-10-16T00:27:19;100951.88;;;12.13;100.00
7333;BME280;3707;43.618;25.342;2022-10-16T00:29:50;100949.41;;;12.20;100.00
7333;BME280;3707;43.618;25.342;2022-10-16T00:32:17;100980.59;;;12.20;100.00
7333;BME280;3707;43.618;25.342;2022-10-16T00:34:44;100982.31;;;12.18;100.00
7333;BME280;3707;43.618;25.342;2022-10-16T00:37:11;100988.41;;;12.20;100.00
7333;BME280;3707;43.618;25.342;2022-10-16T00:39:38;100984.06;;;12.19;100.00
7333;BME280;3707;43.618;25.342;2022-10-16T00:42:05;100991.88;;;12.19;100.00
7333;BME280;3707;43.618;25.342;2022-10-16T00:44:47;100987.09;;;12.37;100.00
7333;BME280;3707;43.618;25.342;2022-10-16T00:47:19;100991.31;;;12.32;100.00
7333;BME280;3707;43.618;25.342;2022-10-16T00:49:50;100975.50;;;12.23;100.00
7333;BME280;3707;43.618;25.342;2022-10-16T00:52:19;100991.16;;;12.26;100.00
7333;BME280;3707;43.618;25.342;2022-10-16T00:54:46;100992.84;;;12.24;100.00
7333;BME280;3707;43.618;25.342;2022-10-16T00:57:15;100992.78;;;12.21;100.00
7333;BME280;3707;43.618;25.342;2022-10-16T00:59:42;101001.41;;;12.20;100.00
7333;BME280;3707;43.618;25.342;2022-10-16T01:02:13;100999.16;;;12.34;100.00
7333;BME280;3707;43.618;25.342;2022-10-16T01:04:43;100978.81;;;12.18;100.00
7333;BME280;3707;43.618;25.342;2022-10-16T01:07:14;100999.81;;;12.25;100.00
7333;BME280;3707;43.618;25.342;2022-10-16T01:09:51;100995.50;;;12.27;100.00
7333;BME280;3707;43.618;25.342;2022-10-16T01:12:24;100997.16;;;12.24;100.00
7333;BME280;3707;43.618;25.342;2022-10-16T01:14:54;100994.31;;;12.13;100.00
7333;BME280;3707;43.618;25.342;2022-10-16T01:17:25;101001.22;;;12.11;100.00
7333;BME280;3707;43.618;25.342;2022-10-16T01:20:16;100990.94;;;12.17;100.00
7333;BME280;3707;43.618;25.342;2022-10-16T01:22:58;100996.91;;;12.12;100.00
7333;BME280;3707;43.618;25.342;2022-10-16T01:25:49;101002.91;;;12.09;100.00
7333;BME280;3707;43.618;25.342;2022-10-16T01:28:28;101011.47;;;12.05;100.00
7333;BME280;3707;43.618;25.342;2022-10-16T01:30:59;100966.53;;;11.75;100.00
7333;BME280;3707;43.618;25.342;2022-10-16T01:33:31;101007.94;;;12.03;100.00
7333;BME280;3707;43.618;25.342;2022-10-16T01:36:05;101008.94;;;12.08;100.00
7333;BME280;3707;43.618;25.342;2022-10-16T01:38:36;101014.91;;;12.04;100.00
7333;BME280;3707;43.618;25.342;2022-10-16T01:41:07;101012.31;;;12.06;100.00
7333;BME280;3707;43.618;25.342;2022-10-16T01:43:43;101014.91;;;12.04;100.00
7333;BME280;3707;43.618;25.342;2022-10-16T01:46:13;101000.69;;;11.90;100.00
7333;BME280;3707;43.618;25.342;2022-10-16T01:48:40;101010.78;;;11.78;100.00
7333;BME280;3707;43.618;25.342;2022-10-16T01:51:10;101010.84;;;11.81;100.00
7333;BME280;3707;43.618;25.342;2022-10-16T01:53:39;101010.78;;;11.78;100.00
7333;BME280;3707;43.618;25.342;2022-10-16T01:56:08;100993.19;;;11.68;100.00
7333;BME280;3707;43.618;25.342;2022-10-16T01:58:42;100993.19;;;11.68;100.00
7333;BME280;3707;43.618;25.342;2022-10-16T02:01:13;101012.50;;;11.77;100.00
7333;BME280;3707;43.618;25.342;2022-10-16T02:03:42;101002.41;;;11.55;100.00
7333;BME280;3707;43.618;25.342;2022-10-16T02:06:09;101017.03;;;11.52;100.00
7333;BME280;3707;43.618;25.342;2022-10-16T02:08:36;100996.66;;;11.35;100.00
7333;BME280;3707;43.618;25.342;2022-10-16T02:11:04;101010.72;;;11.43;100.00
7333;BME280;3707;43.618;25.342;2022-10-16T02:13:35;101001.09;;;11.39;100.00
7333;BME280;3707;43.618;25.342;2022-10-16T02:16:06;101019.50;;;11.49;100.00
7333;BME280;3707;43.618;25.342;2022-10-16T02:18:33;101019.13;;;11.33;100.00
7333;BME280;3707;43.618;25.342;2022-10-16T02:21:05;100982.50;;;11.23;100.00
7333;BME280;3707;43.618;25.342;2022-10-16T02:23:42;101022.97;;;11.49;100.00
7333;BME280;3707;43.618;25.342;2022-10-16T02:26:15;101028.84;;;11.42;100.00
7333;BME280;3707;43.618;25.342;2022-10-16T02:28:49;101030.56;;;11.40;100.00
7333;BME280;3707;43.618;25.342;2022-10-16T02:31:24;101023.38;;;11.31;100.00
7333;BME280;3707;43.618;25.342;2022-10-16T02:33:55;101032.88;;;11.31;100.00
7333;BME280;3707;43.618;25.342;2022-10-16T02:36:25;101012.63;;;11.18;100.00
7333;BME280;3707;43.618;25.342;2022-10-16T02:38:52;101005.38;;;11.06;100.00
7333;BME280;3707;43.618;25.342;2022-10-16T02:41:20;101014.09;;;11.08;100.00
7333;BME280;3707;43.618;25.342;2022-10-16T02:43:47;101042.16;;;11.21;100.00
7333;BME280;3707;43.618;25.342;2022-10-16T02:46:15;101043.91;;;11.22;100.00
7333;BME280;3707;43.618;25.342;2022-10-16T02:48:43;101046.66;;;11.28;100.00
7333;BME280;3707;43.618;25.342;2022-10-16T02:51:10;101026.94;;;11.04;100.00
7333;BME280;3707;43.618;25.342;2022-10-16T02:53:36;101050.69;;;11.17;100.00
7333;BME280;3707;43.618;25.342;2022-10-16T02:56:03;101053.41;;;11.22;100.00
7333;BME280;3707;43.618;25.342;2022-10-16T02:58:30;101055.78;;;11.14;100.00
7333;BME280;3707;43.618;25.342;2022-10-16T03:00:57;101029.22;;;10.93;100.00
7333;BME280;3707;43.618;25.342;2022-10-16T03:03:24;101031.59;;;10.85;100.00
7333;BME280;3707;43.618;25.342;2022-10-16T03:05:52;101062.44;;;11.05;100.00
7333;BME280;3707;43.618;25.342;2022-10-16T03:08:19;101056.75;;;10.88;100.00
7333;BME280;3707;43.618;25.342;2022-10-16T03:10:48;101017.19;;;10.65;100.00
7333;BME280;3707;43.618;25.342;2022-10-16T03:13:15;101057.41;;;10.81;100.00
7333;BME280;3707;43.618;25.342;2022-10-16T03:15:43;101057.19;;;10.73;100.00
7333;BME280;3707;43.618;25.342;2022-10-16T03:18:09;100968.53;;;10.28;100.00
7333;BME280;3707;43.618;25.342;2022-10-16T03:20:36;101050.66;;;10.86;100.00
7333;BME280;3707;43.618;25.342;2022-10-16T03:23:04;101047.56;;;10.99;100.00
7333;BME280;3707;43.618;25.342;2022-10-16T03:25:33;101056.88;;;10.92;100.00
7333;BME280;3707;43.618;25.342;2022-10-16T03:28:00;101053.31;;;10.89;100.00
7333;BME280;3707;43.618;25.342;2022-10-16T03:30:27;100965.38;;;10.38;100.00
7333;BME280;3707;43.618;25.342;2022-10-16T03:32:53;101056.56;;;10.82;100.00
7333;BME280;3707;43.618;25.342;2022-10-16T03:35:20;101053.97;;;10.80;100.00
7333;BME280;3707;43.618;25.342;2022-10-16T03:37:47;101063.53;;;10.83;100.00
7333;BME280;3707;43.618;25.342;2022-10-16T03:40:16;101063.19;;;11.01;100.00
7333;BME280;3707;43.618;25.342;2022-10-16T03:42:43;101026.66;;;10.65;100.00
7333;BME280;3707;43.618;25.342;2022-10-16T03:45:10;101063.69;;;10.89;100.00
7333;BME280;3707;43.618;25.342;2022-10-16T03:47:37;101051.31;;;10.79;100.00
7333;BME280;3707;43.618;25.342;2022-10-16T03:50:05;101061.09;;;10.87;100.00
7333;BME280;3707;43.618;25.342;2022-10-16T03:52:32;101060.38;;;10.65;100.00
7333;BME280;3707;43.618;25.342;2022-10-16T03:54:59;101060.44;;;10.66;100.00
7333;BME280;3707;43.618;25.342;2022-10-16T03:57:27;101067.91;;;10.85;100.00
7333;BME280;3707;43.618;25.342;2022-10-16T03:59:54;101064.50;;;10.86;100.00
7333;BME280;3707;43.618;25.342;2022-10-16T04:02:21;101072.31;;;10.88;100.00
7333;BME280;3707;43.618;25.342;2022-10-16T04:04:47;101066.13;;;10.83;100.00
7333;BME280;3707;43.618;25.342;2022-10-16T04:07:14;101069.41;;;10.77;100.00
7333;BME280;3707;43.618;25.342;2022-10-16T04:09:41;101070.50;;;10.85;100.00
7333;BME280;3707;43.618;25.342;2022-10-16T04:12:08;101054.03;;;10.83;100.00
7333;BME280;3707;43.618;25.342;2022-10-16T04:14:36;101072.69;;;11.00;100.00
7333;BME280;3707;43.618;25.342;2022-10-16T04:17:03;101070.34;;;10.79;100.00
7333;BME280;3707;43.618;25.342;2022-10-16T04:19:29;101075.28;;;10.72;100.00
7333;BME280;3707;43.618;25.342;2022-10-16T04:21:56;101078.53;;;10.65;100.00
7333;BME280;3707;43.618;25.342;2022-10-16T04:24:23;101080.06;;;10.58;100.00
7333;BME280;3707;43.618;25.342;2022-10-16T04:26:50;101078.16;;;10.53;100.00
7333;BME280;3707;43.618;25.342;2022-10-16T04:29:17;101076.31;;;10.49;100.00
7333;BME280;3707;43.618;25.342;2022-10-16T04:31:45;101084.13;;;10.50;100.00
7333;BME280;3707;43.618;25.342;2022-10-16T04:34:12;101075.78;;;10.32;100.00
7333;BME280;3707;43.618;25.342;2022-10-16T04:36:39;101076.41;;;10.25;100.00
7333;BME280;3707;43.618;25.342;2022-10-16T04:39:06;101073.78;;;10.23;100.00
7333;BME280;3707;43.618;25.342;2022-10-16T04:41:33;101061.47;;;10.16;100.00
7333;BME280;3707;43.618;25.342;2022-10-16T04:44:00;101064.00;;;10.15;100.00
7333;BME280;3707;43.618;25.342;2022-10-16T04:46:26;101082.47;;;10.25;100.00
7333;BME280;3707;43.618;25.342;2022-10-16T04:48:54;101103.81;;;10.43;100.00
7333;BME280;3707;43.618;25.342;2022-10-16T04:51:21;101091.63;;;10.41;100.00
7333;BME280;3707;43.618;25.342;2022-10-16T04:53:48;101096.44;;;10.56;100.00
7333;BME280;3707;43.618;25.342;2022-10-16T04:56:15;101101.88;;;10.65;100.00
7333;BME280;3707;43.618;25.342;2022-10-16T04:58:41;101090.69;;;10.66;100.00
7333;BME280;3707;43.618;25.342;2022-10-16T05:01:08;101105.03;;;10.83;100.00
7333;BME280;3707;43.618;25.342;2022-10-16T05:03:35;101105.13;;;10.86;100.00
7333;BME280;3707;43.618;25.342;2022-10-16T05:06:05;101099.59;;;11.04;100.00
7333;BME280;3707;43.618;25.342;2022-10-16T05:08:31;101108.94;;;10.97;100.00
7333;BME280;3707;43.618;25.342;2022-10-16T05:10:58;101109.06;;;11.02;100.00
7333;BME280;3707;43.618;25.342;2022-10-16T05:13:25;101113.78;;;11.15;100.00
7333;BME280;3707;43.618;25.342;2022-10-16T05:15:52;101117.50;;;11.24;100.00
7333;BME280;3707;43.618;25.342;2022-10-16T05:18:18;101129.22;;;11.40;100.00
7333;BME280;3707;43.618;25.342;2022-10-16T05:20:45;101129.00;;;11.32;100.00
7333;BME280;3707;43.618;25.342;2022-10-16T05:23:13;101127.91;;;11.54;100.00
7333;BME280;3707;43.618;25.342;2022-10-16T05:25:40;101125.66;;;11.36;100.00
7333;BME280;3707;43.618;25.342;2022-10-16T05:28:07;101143.19;;;11.43;100.00
7333;BME280;3707;43.618;25.342;2022-10-16T05:30:34;101144.59;;;11.62;100.00
7333;BME280;3707;43.618;25.342;2022-10-16T05:33:00;101126.50;;;11.67;100.00
7333;BME280;3707;43.618;25.342;2022-10-16T05:35:27;101148.97;;;11.96;100.00
7333;BME280;3707;43.618;25.342;2022-10-16T05:37:54;101128.88;;;11.89;100.00
7333;BME280;3707;43.618;25.342;2022-10-16T05:40:22;101157.53;;;12.25;100.00
7333;BME280;3707;43.618;25.342;2022-10-16T05:42:49;101163.00;;;12.35;100.00
7333;BME280;3707;43.618;25.342;2022-10-16T05:45:16;101147.91;;;12.57;100.00
7333;BME280;3707;43.618;25.342;2022-10-16T05:47:42;101154.34;;;12.71;100.00
7333;BME280;3707;43.618;25.342;2022-10-16T05:50:09;101141.84;;;12.56;100.00
7333;BME280;3707;43.618;25.342;2022-10-16T05:52:36;101165.38;;;12.61;100.00
7333;BME280;3707;43.618;25.342;2022-10-16T05:55:03;101169.28;;;12.79;100.00
7333;BME280;3707;43.618;25.342;2022-10-16T05:57:32;101166.81;;;12.85;100.00
7333;BME280;3707;43.618;25.342;2022-10-16T05:59:58;101173.56;;;13.13;100.00
7333;BME280;3707;43.618;25.342;2022-10-16T06:02:25;101191.41;;;13.35;100.00
7333;BME280;3707;43.618;25.342;2022-10-16T06:04:52;101195.69;;;13.32;100.00
7333;BME280;3707;43.618;25.342;2022-10-16T06:07:20;101200.06;;;13.33;100.00
7333;BME280;3707;43.618;25.342;2022-10-16T06:09:48;101193.34;;;13.44;100.00
7333;BME280;3707;43.618;25.342;2022-10-16T06:12:15;101209.41;;;13.25;100.00
7333;BME280;3707;43.618;25.342;2022-10-16T06:14:44;101187.84;;;13.30;100.00
7333;BME280;3707;43.618;25.342;2022-10-16T06:17:12;101228.13;;;13.45;100.00
7333;BME280;3707;43.618;25.342;2022-10-16T06:19:38;101214.22;;;13.46;100.00
7333;BME280;3707;43.618;25.342;2022-10-16T06:22:06;101235.53;;;13.28;100.00
7333;BME280;3707;43.618;25.342;2022-10-16T06:24:32;101227.75;;;13.29;100.00
7333;BME280;3707;43.618;25.342;2022-10-16T06:26:59;101235.13;;;13.49;100.00
7333;BME280;3707;43.618;25.342;2022-10-16T06:29:26;101232.97;;;13.70;100.00
7333;BME280;3707;43.618;25.342;2022-10-16T06:31:54;101242.75;;;13.80;100.00
7333;BME280;3707;43.618;25.342;2022-10-16T06:34:21;101246.09;;;13.73;100.00
7333;BME280;3707;43.618;25.342;2022-10-16T06:36:48;101191.13;;;13.62;100.00
7333;BME280;3707;43.618;25.342;2022-10-16T06:39:15;101257.44;;;14.20;100.00
7333;BME280;3707;43.618;25.342;2022-10-16T06:41:41;101242.88;;;14.31;100.00
7333;BME280;3707;43.618;25.342;2022-10-16T06:44:08;101259.19;;;14.64;100.00
7333;BME280;3707;43.618;25.342;2022-10-16T06:46:35;101260.28;;;14.78;100.00
7333;BME280;3707;43.618;25.342;2022-10-16T06:49:03;101252.06;;;15.08;100.00
7333;BME280;3707;43.618;25.342;2022-10-16T06:51:30;101274.53;;;14.97;100.00
7333;BME280;3707;43.618;25.342;2022-10-16T06:53:59;101182.47;;;14.56;100.00
7333;BME280;3707;43.618;25.342;2022-10-16T06:56:27;101282.09;;;15.37;100.00
7333;BME280;3707;43.618;25.342;2022-10-16T06:58:55;101293.53;;;15.43;100.00
7333;BME280;3707;43.618;25.342;2022-10-16T07:01:23;101297.19;;;15.52;100.00
7333;BME280;3707;43.618;25.342;2022-10-16T07:03:50;101285.56;;;15.35;100.00
7333;BME280;3707;43.618;25.342;2022-10-16T07:06:20;101304.66;;;15.29;100.00
7333;BME280;3707;43.618;25.342;2022-10-16T07:08:48;101302.03;;;14.77;100.00
7333;BME280;3707;43.618;25.342;2022-10-16T07:11:16;101283.66;;;14.71;100.00
7333;BME280;3707;43.618;25.342;2022-10-16T07:13:44;101302.19;;;14.86;100.00
7333;BME280;3707;43.618;25.342;2022-10-16T07:16:14;101300.97;;;15.15;100.00
7333;BME280;3707;43.618;25.342;2022-10-16T07:18:42;101309.38;;;14.98;100.00
7333;BME280;3707;43.618;25.342;2022-10-16T07:21:12;101309.72;;;15.19;100.00
7333;BME280;3707;43.618;25.342;2022-10-16T07:23:41;101312.50;;;15.31;100.00
7333;BME280;3707;43.618;25.342;2022-10-16T07:26:09;101297.38;;;15.10;100.00
7333;BME280;3707;43.618;25.342;2022-10-16T07:28:36;101307.00;;;15.13;100.00
7333;BME280;3707;43.618;25.342;2022-10-16T07:31:06;101308.38;;;15.44;100.00
7333;BME280;3707;43.618;25.342;2022-10-16T07:33:33;101312.50;;;15.29;100.00
7333;BME280;3707;43.618;25.342;2022-10-16T07:36:01;101311.31;;;15.66;100.00
7333;BME280;3707;43.618;25.342;2022-10-16T07:38:27;101314.00;;;15.71;100.00
7333;BME280;3707;43.618;25.342;2022-10-16T07:41:00;101310.78;;;15.92;100.00
7333;BME280;3707;43.618;25.342;2022-10-16T07:43:27;101294.94;;;15.78;100.00
7333;BME280;3707;43.618;25.342;2022-10-16T07:45:54;101306.34;;;15.83;100.00
7333;BME280;3707;43.618;25.342;2022-10-16T07:48:22;101241.84;;;15.23;100.00
7333;BME280;3707;43.618;25.342;2022-10-16T07:50:49;101293.38;;;15.32;100.00
7333;BME280;3707;43.618;25.342;2022-10-16T07:53:16;101312.25;;;15.14;100.00
7333;BME280;3707;43.618;25.342;2022-10-16T07:55:43;101305.75;;;14.89;100.00
7333;BME280;3707;43.618;25.342;2022-10-16T07:58:11;101305.69;;;14.88;100.00
7333;BME280;3707;43.618;25.342;2022-10-16T08:00:38;101280.09;;;14.67;100.00
7333;BME280;3707;43.618;25.342;2022-10-16T08:03:05;101311.09;;;14.97;100.00
7333;BME280;3707;43.618;25.342;2022-10-16T08:05:32;101285.81;;;14.96;100.00
7333;BME280;3707;43.618;25.342;2022-10-16T08:08:00;101297.34;;;15.07;100.00
7333;BME280;3707;43.618;25.342;2022-10-16T08:10:28;101312.50;;;15.31;100.00
7333;BME280;3707;43.618;25.342;2022-10-16T08:12:55;101316.63;;;15.15;100.00
7333;BME280;3707;43.618;25.342;2022-10-16T08:15:23;101301.59;;;15.55;100.00
7333;BME280;3707;43.618;25.342;2022-10-16T08:17:57;101319.75;;;15.47;100.00
7333;BME280;3707;43.618;25.342;2022-10-16T08:20:25;101315.41;;;15.48;100.00
7333;BME280;3707;43.618;25.342;2022-10-16T08:22:52;101315.59;;;15.58;100.00
7333;BME280;3707;43.618;25.342;2022-10-16T08:25:19;101301.81;;;15.71;100.00
7333;BME280;3707;43.618;25.342;2022-10-16T08:27:47;101319.69;;;16.04;100.00
7333;BME280;3707;43.618;25.342;2022-10-16T08:30:14;101309.22;;;16.04;100.00
7333;BME280;3707;43.618;25.342;2022-10-16T08:32:42;101315.19;;;15.93;100.00
7333;BME280;3707;43.618;25.342;2022-10-16T08:35:09;101321.53;;;16.13;100.00
7333;BME280;3707;43.618;25.342;2022-10-16T08:37:37;101326.94;;;16.26;100.00
7333;BME280;3707;43.618;25.342;2022-10-16T08:40:05;101337.34;;;16.23;98.98
7333;BME280;3707;43.618;25.342;2022-10-16T08:42:44;101330.59;;;16.41;97.37
7333;BME280;3707;43.618;25.342;2022-10-16T08:45:21;101329.81;;;16.49;96.49
7333;BME280;3707;43.618;25.342;2022-10-16T08:48:00;101316.84;;;16.57;96.48
7333;BME280;3707;43.618;25.342;2022-10-16T08:50:35;101301.16;;;16.60;95.25
7333;BME280;3707;43.618;25.342;2022-10-16T08:53:04;101333.56;;;16.69;94.72
7333;BME280;3707;43.618;25.342;2022-10-16T08:55:37;101333.69;;;16.80;94.07
7333;BME280;3707;43.618;25.342;2022-10-16T08:58:11;101314.47;;;16.79;93.42
7333;BME280;3707;43.618;25.342;2022-10-16T09:00:38;101337.81;;;16.58;92.94
7333;BME280;3707;43.618;25.342;2022-10-16T09:03:14;101336.50;;;17.04;91.97
7333;BME280;3707;43.618;25.342;2022-10-16T09:05:52;101336.69;;;17.25;89.87
7333;BME280;3707;43.618;25.342;2022-10-16T09:08:27;101317.41;;;17.20;88.92
7333;BME280;3707;43.618;25.342;2022-10-16T09:10:57;101327.25;;;17.50;88.00
7333;BME280;3707;43.618;25.342;2022-10-16T09:13:29;101334.19;;;17.41;87.00
7333;BME280;3707;43.618;25.342;2022-10-16T09:16:09;101339.66;;;17.68;84.86
7333;BME280;3707;43.618;25.342;2022-10-16T09:18:45;101333.56;;;17.78;83.41
7333;BME280;3707;43.618;25.342;2022-10-16T09:21:18;101189.66;;;16.89;84.57
7333;BME280;3707;43.618;25.342;2022-10-16T09:23:46;101324.69;;;17.55;83.18
7333;BME280;3707;43.618;25.342;2022-10-16T09:26:14;101329.88;;;17.52;82.41
7333;BME280;3707;43.618;25.342;2022-10-16T09:28:43;101315.97;;;17.59;81.11
7333;BME280;3707;43.618;25.342;2022-10-16T09:31:15;101322.25;;;17.82;80.46
7333;BME280;3707;43.618;25.342;2022-10-16T09:33:48;101321.47;;;18.04;79.68
7333;BME280;3707;43.618;25.342;2022-10-16T09:36:16;101326.72;;;18.04;77.93
7333;BME280;3707;43.618;25.342;2022-10-16T09:38:44;101302.06;;;17.73;76.32
7333;BME280;3707;43.618;25.342;2022-10-16T09:41:16;101319.72;;;18.09;75.45
7333;BME280;3707;43.618;25.342;2022-10-16T09:43:48;101300.44;;;17.91;75.89
7333;BME280;3707;43.618;25.342;2022-10-16T09:46:26;101321.44;;;17.98;74.55
7333;BME280;3707;43.618;25.342;2022-10-16T09:48:56;101319.69;;;17.97;73.00
7333;BME280;3707;43.618;25.342;2022-10-16T09:51:25;101316.16;;;17.95;71.86
7333;BME280;3707;43.618;25.342;2022-10-16T09:53:56;101317.94;;;17.99;70.99
7333;BME280;3707;43.618;25.342;2022-10-16T09:56:25;101300.47;;;18.01;68.54
7333;BME280;3707;43.618;25.342;2022-10-16T09:58:53;101311.84;;;18.09;65.89
7333;BME280;3707;43.618;25.342;2022-10-16T10:01:21;101313.59;;;18.09;66.25
7333;BME280;3707;43.618;25.342;2022-10-16T10:03:49;101296.94;;;17.99;63.90
7333;BME280;3707;43.618;25.342;2022-10-16T10:06:23;101306.69;;;18.32;64.41
7333;BME280;3707;43.618;25.342;2022-10-16T10:08:56;101284.75;;;18.13;64.12
7333;BME280;3707;43.618;25.342;2022-10-16T10:11:44;101288.41;;;18.53;64.43
7333;BME280;3707;43.618;25.342;2022-10-16T10:14:23;101304.19;;;18.55;62.92
7333;BME280;3707;43.618;25.342;2022-10-16T10:16:51;101303.28;;;18.66;62.33
7333;BME280;3707;43.618;25.342;2022-10-16T10:19:20;101303.28;;;18.66;61.88
7333;BME280;3707;43.618;25.342;2022-10-16T10:21:49;101282.28;;;18.69;60.66
7333;BME280;3707;43.618;25.342;2022-10-16T10:24:18;101315.59;;;18.86;60.34
7333;BME280;3707;43.618;25.342;2022-10-16T10:26:54;101310.31;;;18.95;58.22
7333;BME280;3707;43.618;25.342;2022-10-16T10:29:34;101295.44;;;18.88;58.33
7333;BME280;3707;43.618;25.342;2022-10-16T10:32:14;101316.47;;;19.10;57.21
7333;BME280;3707;43.618;25.342;2022-10-16T10:34:58;101311.22;;;19.12;56.06
7333;BME280;3707;43.618;25.342;2022-10-16T10:37:47;101300.69;;;18.80;54.60
7333;BME280;3707;43.618;25.342;2022-10-16T10:40:28;101299.81;;;18.89;54.16
7333;BME280;3707;43.618;25.342;2022-10-16T10:42:59;101292.81;;;19.13;53.78
7333;BME280;3707;43.618;25.342;2022-10-16T10:45:33;101276.16;;;18.96;54.60
7333;BME280;3707;43.618;25.342;2022-10-16T10:48:21;101282.28;;;19.24;54.67
7333;BME280;3707;43.618;25.342;2022-10-16T10:50:54;101284.91;;;18.88;53.60
7333;BME280;3707;43.618;25.342;2022-10-16T10:53:32;101276.16;;;18.72;55.54
7333;BME280;3707;43.618;25.342;2022-10-16T10:56:07;101269.16;;;19.22;54.91
7333;BME280;3707;43.618;25.342;2022-10-16T10:59:02;101270.03;;;19.15;54.31
7333;BME280;3707;43.618;25.342;2022-10-16T11:01:40;101263.00;;;19.33;55.05
7333;BME280;3707;43.618;25.342;2022-10-16T11:04:32;101273.50;;;19.28;55.39
7333;BME280;3707;43.618;25.342;2022-10-16T11:07:02;101268.28;;;19.10;55.36
7333;BME280;3707;43.618;25.342;2022-10-16T11:09:35;101263.91;;;19.04;55.19
7333;BME280;3707;43.618;25.342;2022-10-16T11:12:08;101263.00;;;19.02;55.05
7333;BME280;3707;43.618;25.342;2022-10-16T11:14:41;101251.63;;;19.18;54.60
7333;BME280;3707;43.618;25.342;2022-10-16T11:17:13;101259.47;;;19.30;57.96
7333;BME280;3707;43.618;25.342;2022-10-16T11:19:46;101244.56;;;19.40;55.79
7333;BME280;3707;43.618;25.342;2022-10-16T11:22:18;101272.66;;;19.43;54.55
7333;BME280;3707;43.618;25.342;2022-10-16T11:24:50;101270.88;;;19.54;56.08
7333;BME280;3707;43.618;25.342;2022-10-16T11:27:22;101270.00;;;19.55;56.03
7333;BME280;3707;43.618;25.342;2022-10-16T11:29:54;101275.25;;;19.55;55.44
7333;BME280;3707;43.618;25.342;2022-10-16T11:32:27;101239.28;;;19.52;53.69
7333;BME280;3707;43.618;25.342;2022-10-16T11:34:59;101269.06;;;19.68;53.70
7333;BME280;3707;43.618;25.342;2022-10-16T11:37:32;101263.88;;;19.50;53.84
7333;BME280;3707;43.618;25.342;2022-10-16T11:40:10;101241.94;;;19.48;53.36
7333;BME280;3707;43.618;25.342;2022-10-16T11:42:48;101253.22;;;19.83;53.15
7333;BME280;3707;43.618;25.342;2022-10-16T11:45:26;101262.97;;;19.49;53.85
7333;BME280;3707;43.618;25.342;2022-10-16T11:47:58;101266.44;;;19.66;54.09
7333;BME280;3707;43.618;25.342;2022-10-16T11:50:33;101248.00;;;19.75;53.06
7333;BME280;3707;43.618;25.342;2022-10-16T11:53:04;101258.63;;;19.25;53.17
7333;BME280;3707;43.618;25.342;2022-10-16T11:55:39;101256.84;;;19.44;52.23
7333;BME280;3707;43.618;25.342;2022-10-16T11:58:08;101251.50;;;19.73;53.08
7333;BME280;3707;43.618;25.342;2022-10-16T12:00:43;101257.72;;;19.40;53.18
7333;BME280;3707;43.618;25.342;2022-10-16T12:03:19;101260.38;;;19.51;52.63
7333;BME280;3707;43.618;25.342;2022-10-16T12:05:58;101270.81;;;19.75;52.66
7333;BME280;3707;43.618;25.342;2022-10-16T12:08:27;101260.34;;;19.54;52.45
7333;BME280;3707;43.618;25.342;2022-10-16T12:11:06;101263.81;;;19.65;51.83
7333;BME280;3707;43.618;25.342;2022-10-16T12:13:34;101260.28;;;19.70;52.19
7333;BME280;3707;43.618;25.342;2022-10-16T12:16:21;101262.00;;;19.85;52.17
7333;BME280;3707;43.618;25.342;2022-10-16T12:18:48;101263.81;;;19.65;52.71
7333;BME280;3707;43.618;25.342;2022-10-16T12:21:16;101255.09;;;19.45;52.66
7333;BME280;3707;43.618;25.342;2022-10-16T12:23:49;101235.81;;;19.37;52.98
7333;BME280;3707;43.618;25.342;2022-10-16T12:26:26;101265.53;;;19.78;51.94
7333;BME280;3707;43.618;25.342;2022-10-16T12:28:53;101260.34;;;19.58;51.93
7333;BME280;3707;43.618;25.342;2022-10-16T12:31:21;101264.66;;;19.77;51.45
7333;BME280;3707;43.618;25.342;2022-10-16T12:33:58;101244.50;;;19.66;52.02
7333;BME280;3707;43.618;25.342;2022-10-16T12:36:28;101248.94;;;19.61;52.50
7333;BME280;3707;43.618;25.342;2022-10-16T12:38:55;101265.53;;;19.78;52.81
7333;BME280;3707;43.618;25.342;2022-10-16T12:41:28;101264.59;;;19.93;52.31
7333;BME280;3707;43.618;25.342;2022-10-16T12:43:56;101186.69;;;19.54;51.48
7333;BME280;3707;43.618;25.342;2022-10-16T12:46:35;101245.34;;;19.83;52.30
7333;BME280;3707;43.618;25.342;2022-10-16T12:49:29;101257.66;;;19.75;51.94
7333;BME280;3707;43.618;25.342;2022-10-16T12:51:57;101269.03;;;19.83;52.53
7333;BME280;3707;43.618;25.342;2022-10-16T12:54:28;101265.56;;;19.72;52.18
7333;BME280;3707;43.618;25.342;2022-10-16T12:57:22;101268.16;;;19.76;52.44
7333;BME280;3707;43.618;25.342;2022-10-16T12:59:57;101254.13;;;19.74;52.89
7333;BME280;3707;43.618;25.342;2022-10-16T13:02:49;101262.94;;;19.69;51.98
7333;BME280;3707;43.618;25.342;2022-10-16T13:05:28;101245.44;;;19.53;52.47
7333;BME280;3707;43.618;25.342;2022-10-16T13:08:09;101228.78;;;19.36;52.29